Accueil
METAR-TAF:

METAR-TAF

Aéroports :

Benguela, Angola

latitude: 12-36-30S, longitude: 13-24-10E, altitude: 36 m

METAR: absent

Heure: 00:54 (23:54 UTC)

Prévision

Le bulletin a été fait il y a 54 minutes, à 23:00 UTC
Prévision valable du 27 à 00 UTC au 27 à 12 UTC
Vent 5 kt de sud-ouest
Visibilité 10 km ou plus
Quelques nuages à une hauteur de 2000 ft
Temporairement
du 27 à 03 UTC au 27 à 07 UTC
Vent 3 kt de direction variable
Visibilité: 9000 m
Nuages épars à une hauteur de 1500 ft
Nuages fragmentés à une hauteur de 4000 ft
Evoluant progressivement
du 27 à 10 UTC au 27 à 12 UTC
Vent 9 kt de ouest/nord-ouest

TAF: FNBG 262300Z 2700/2712 23005KT 9999 FEW020 TEMPO 2703/2707 VRB03KT 9000 SCT015 BKN040 BECMG 2710/2712 30009KT

Observations et prévisions météorologiques de plus de 4000 aéroports (messages METAR et TAF).

Les stations disponibles sont représentées par des disques jaunes et rouges sur la carte.

Passer la souris dessus pour voir le nom de la station.

Cliquer dessus pour voir les observations et prévisions météorologiques.

Pour changer de carte: cliquez sur les boutons verts avec une croix noire pour zoomer, sur le bouton vert avec un tiret pour effectuer un zoom arrière, ou sur les flèches vertes pour les cartes adjacentes.


METAR-TAF: